createdAt,value
2019-05-07T01:09:55.720Z,12.17
2019-05-07T01:21:52.540Z,14.03
2019-05-07T01:32:59.578Z,13.87
2019-05-07T01:43:22.649Z,13.13
2019-05-07T01:49:55.105Z,13.13
2019-05-07T01:53:03.829Z,14.10
2019-05-07T02:00:02.759Z,12.30
2019-05-07T02:19:25.333Z,13.60
2019-05-07T02:25:53.905Z,11.83
2019-05-07T02:29:13.329Z,12.97
2019-05-07T02:32:24.022Z,16.47
2019-05-07T02:35:25.663Z,12.03
2019-05-07T02:39:54.139Z,11.23
2019-05-07T02:42:03.725Z,16.57
2019-05-07T02:45:05.280Z,11.43
2019-05-07T02:51:06.817Z,9.90
2019-05-07T02:54:28.167Z,9.53
2019-05-07T02:58:03.437Z,13.67
2019-05-07T03:08:44.533Z,12.30
2019-05-07T03:27:34.288Z,14.33
2019-05-07T03:30:56.552Z,11.43
2019-05-07T03:36:46.321Z,16.17
2019-05-07T03:43:05.907Z,11.23
2019-05-07T03:47:02.193Z,15.03
2019-05-07T04:07:13.692Z,16.80
2019-05-07T04:10:10.011Z,15.90
2019-05-07T04:12:53.387Z,13.57
2019-05-07T04:15:57.473Z,16.37
2019-05-07T04:25:17.695Z,21.53
2019-05-07T04:28:27.202Z,14.30
2019-05-07T04:38:35.770Z,21.43
2019-05-07T04:41:36.876Z,17.23
2019-05-07T04:48:25.351Z,19.43
2019-05-07T04:54:43.476Z,19.07
2019-05-07T04:57:33.036Z,29.10
2019-05-07T05:00:39.662Z,16.67
2019-05-07T05:03:35.548Z,22.73
2019-05-07T05:06:05.770Z,20.70
2019-05-07T05:12:42.839Z,21.27
2019-05-07T05:15:52.754Z,23.03
2019-05-07T05:29:13.023Z,26.67
2019-05-07T05:31:42.264Z,27.33
2019-05-07T05:37:38.992Z,30.17
2019-05-07T05:40:12.183Z,32.00
2019-05-07T05:42:58.107Z,30.33
2019-05-07T05:45:37.639Z,32.27
2019-05-07T05:48:08.483Z,30.70
2019-05-07T05:50:59.618Z,31.67
2019-05-07T05:53:36.501Z,28.93
2019-05-07T05:56:18.977Z,32.27
2019-05-07T05:58:59.102Z,30.30
2019-05-07T06:01:52.109Z,29.43
2019-05-07T06:04:28.179Z,33.90
2019-05-07T06:07:22.547Z,29.70
2019-05-07T06:23:47.624Z,30.70
2019-05-07T15:03:12.271Z,10.63
2019-05-07T15:05:48.665Z,9.87
2019-05-07T15:08:17.204Z,10.57
2019-05-07T15:10:45.915Z,9.80
2019-05-07T15:13:17.624Z,9.17
2019-05-07T15:15:46.027Z,11.37
2019-05-07T15:18:32.357Z,9.80
2019-05-07T15:21:01.870Z,19.37
2019-05-07T15:23:33.239Z,8.23
2019-05-07T15:26:04.605Z,9.57
2019-05-07T15:28:32.394Z,10.23
2019-05-07T15:31:09.778Z,10.70
2019-05-07T15:33:38.268Z,10.37
2019-05-07T15:36:06.813Z,9.07
2019-05-07T15:38:45.119Z,9.63
2019-05-07T15:41:19.645Z,8.47
2019-05-07T15:43:52.651Z,10.50
2019-05-07T15:46:22.691Z,8.97
2019-05-07T15:48:52.878Z,10.17
2019-05-07T15:51:23.664Z,10.83
2019-05-07T15:53:55.159Z,11.97
2019-05-07T15:56:24.411Z,14.80
2019-05-07T15:59:02.267Z,10.80
2019-05-07T16:01:37.287Z,9.03
2019-05-07T16:04:19.927Z,10.70
2019-05-07T16:06:42.610Z,11.03
2019-05-07T16:09:12.868Z,9.03
2019-05-07T16:11:44.407Z,12.07
2019-05-07T16:31:38.268Z,13.03
2019-05-07T16:37:22.904Z,12.87
2019-05-07T16:42:32.208Z,11.67
2019-05-07T16:45:03.807Z,11.67
2019-05-07T16:47:34.234Z,10.43
2019-05-07T16:50:13.031Z,12.37
2019-05-07T16:52:46.273Z,13.13
2019-05-07T16:55:25.890Z,14.20
2019-05-07T16:58:06.051Z,14.93
2019-05-07T17:01:03.823Z,14.30
2019-05-07T17:03:44.866Z,13.23
2019-05-07T17:06:16.562Z,16.13
2019-05-07T17:08:55.339Z,14.37
2019-05-07T17:11:24.316Z,13.53
2019-05-07T17:14:02.425Z,13.37
2019-05-07T17:16:38.439Z,13.43
2019-05-07T17:19:11.937Z,12.97
2019-05-07T17:21:47.975Z,13.63
2019-05-07T17:24:22.310Z,13.20
2019-05-07T17:26:58.066Z,15.30
2019-05-07T17:30:38.263Z,14.27
2019-05-07T17:32:57.139Z,15.43
2019-05-07T17:35:34.541Z,13.43
2019-05-07T17:38:07.365Z,13.43
2019-05-07T17:40:43.193Z,11.93
2019-05-07T17:46:02.834Z,13.23
2019-05-07T17:48:32.785Z,15.77
2019-05-07T17:51:23.505Z,14.20
2019-05-07T17:53:59.734Z,16.87
2019-05-07T17:56:22.691Z,11.50
2019-05-07T17:58:52.213Z,13.50
2019-05-07T18:01:50.203Z,13.80
2019-05-07T18:04:19.144Z,13.37
2019-05-07T18:06:47.746Z,14.83
2019-05-07T18:09:16.317Z,14.33
2019-05-07T18:11:52.257Z,16.40
2019-05-07T18:14:22.837Z,12.97
2019-05-07T18:17:13.752Z,14.90
2019-05-07T18:19:47.181Z,13.53
2019-05-07T18:22:18.730Z,16.17
2019-05-07T18:24:47.873Z,15.67
2019-05-07T18:27:25.647Z,13.57
2019-05-07T18:29:54.807Z,14.50
2019-05-07T18:32:36.568Z,14.50
2019-05-07T18:35:08.179Z,14.27
2019-05-07T18:37:49.599Z,13.57
2019-05-07T18:40:27.816Z,14.13
2019-05-07T18:42:56.989Z,14.30
2019-05-07T18:45:27.651Z,17.83
2019-05-07T18:47:59.402Z,14.80
2019-05-07T18:50:33.204Z,14.70
2019-05-07T18:53:05.167Z,15.03
2019-05-07T18:55:34.005Z,14.70
2019-05-07T18:58:02.910Z,17.53
2019-05-07T19:00:38.348Z,14.37
2019-05-07T19:03:07.966Z,16.40
2019-05-07T19:05:36.628Z,14.77
2019-05-07T19:08:12.388Z,17.13
2019-05-07T19:10:42.983Z,17.50
2019-05-07T19:13:11.867Z,15.83
2019-05-07T19:15:45.017Z,17.03
2019-05-07T19:18:16.432Z,14.87
2019-05-07T19:20:46.821Z,17.43
2019-05-07T19:23:24.025Z,15.90
2019-05-07T19:25:52.829Z,15.07
2019-05-07T19:28:22.599Z,16.27
2019-05-07T19:30:58.777Z,16.90
2019-05-07T19:34:09.071Z,18.47
2019-05-07T19:36:59.080Z,17.10
2019-05-07T19:43:16.836Z,16.23
2019-05-07T19:45:52.353Z,17.53
2019-05-07T19:51:39.098Z,15.97
2019-05-07T20:00:57.083Z,15.37
2019-05-07T20:03:23.662Z,16.40
2019-05-07T20:05:52.603Z,19.20
2019-05-07T20:08:21.383Z,19.93
2019-05-07T20:10:59.654Z,15.77
2019-05-07T20:13:32.760Z,16.90
2019-05-07T20:16:17.228Z,16.20
2019-05-07T20:18:54.410Z,15.13
2019-05-07T20:21:48.832Z,18.73
2019-05-07T20:24:46.744Z,17.30
2019-05-07T20:27:35.946Z,17.53
2019-05-07T20:30:07.265Z,17.93
2019-05-07T20:32:44.533Z,15.97
2019-05-07T20:35:15.368Z,19.17
2019-05-07T20:37:49.228Z,18.37
2019-05-07T20:40:25.802Z,20.67
2019-05-07T20:43:15.879Z,18.53
2019-05-07T20:46:12.923Z,21.00
2019-05-07T20:51:32.537Z,18.70
2019-05-07T20:54:15.327Z,18.27
2019-05-07T20:56:59.337Z,19.53
2019-05-07T20:59:40.173Z,21.40
2019-05-07T21:02:12.329Z,23.37
2019-05-07T21:04:43.826Z,17.80
2019-05-07T21:07:12.317Z,19.73
2019-05-07T21:09:44.090Z,17.63
2019-05-07T21:12:13.028Z,19.27
2019-05-07T21:14:52.399Z,18.23
2019-05-07T21:17:46.522Z,18.93
2019-05-07T21:20:15.978Z,18.97
2019-05-07T21:22:44.704Z,18.53
2019-05-07T21:25:13.296Z,18.27
2019-05-07T21:27:43.122Z,17.30
2019-05-07T21:30:13.086Z,16.80
2019-05-07T21:32:42.170Z,16.33
2019-05-07T21:35:11.230Z,18.20
2019-05-07T21:37:41.798Z,20.97
2019-05-07T21:40:13.004Z,20.63
2019-05-07T21:42:42.555Z,18.83
2019-05-07T21:45:11.308Z,20.03
2019-05-07T21:47:40.334Z,21.97
2019-05-07T21:50:08.844Z,16.47
2019-05-07T21:52:39.630Z,21.37
2019-05-07T21:55:41.797Z,19.20
2019-05-07T21:58:38.520Z,16.23
2019-05-07T22:01:29.287Z,19.50
2019-05-07T22:03:58.211Z,19.53
2019-05-07T22:06:26.774Z,17.70
2019-05-07T22:08:55.866Z,20.10
2019-05-07T22:11:24.665Z,17.73
2019-05-07T22:13:54.836Z,17.57
2019-05-07T22:16:24.014Z,18.83
2019-05-07T22:18:52.388Z,22.10
2019-05-07T22:21:21.700Z,18.13
2019-05-07T22:23:52.196Z,16.70
2019-05-07T22:26:23.853Z,19.07
2019-05-07T22:28:54.145Z,18.73
2019-05-07T22:31:43.889Z,18.50
2019-05-07T22:34:16.685Z,18.83
2019-05-07T22:36:45.349Z,19.67
2019-05-07T22:39:13.945Z,20.63
2019-05-07T22:41:42.626Z,15.73
2019-05-07T22:44:12.028Z,18.57
2019-05-07T22:46:42.128Z,18.97
2019-05-07T22:49:12.287Z,17.67
2019-05-07T22:51:41.298Z,17.10
2019-05-07T22:54:11.705Z,17.33
2019-05-07T22:56:57.287Z,19.17
2019-05-07T22:59:26.020Z,17.00
2019-05-07T23:01:55.968Z,16.17
2019-05-07T23:04:24.565Z,18.10
2019-05-07T23:06:53.611Z,15.33
2019-05-07T23:09:22.594Z,17.23
2019-05-07T23:11:52.645Z,19.37
2019-05-07T23:14:22.627Z,16.47
2019-05-07T23:16:52.636Z,16.27
2019-05-07T23:19:22.387Z,21.30
2019-05-07T23:21:53.055Z,17.53
2019-05-07T23:24:22.577Z,15.43
2019-05-07T23:26:53.717Z,16.23
2019-05-07T23:29:22.588Z,14.73
2019-05-07T23:31:52.781Z,16.93
2019-05-07T23:34:22.084Z,17.70
2019-05-07T23:36:53.338Z,15.67
2019-05-07T23:39:23.900Z,16.20
2019-05-07T23:42:02.139Z,16.17
2019-05-07T23:44:30.631Z,15.57
2019-05-07T23:46:59.282Z,15.37
2019-05-07T23:49:28.201Z,16.27
2019-05-07T23:51:56.762Z,13.17
2019-05-07T23:54:25.469Z,15.27
2019-05-07T23:57:05.916Z,14.03
2019-05-07T23:59:27.098Z,13.37
